Finnmarken — LDBE — position and weather

sailwx.info

Track history (hours):
 
Tides and Currents Weather Stations Pressure Air Temp Water Temp Dewpoint Dewpoint Depression Visibility Wind Speed Wind Dir Waves Ship Positions

Finnmarken

Last reported at 2017-Oct-22 08:00 UTC. Time now 2017-Oct-22 08:04 UTC.
Position N 61°17' E 004°55'.

Length 139 m; draft 5.2 m.

Type: Passenger vessel. MMSI: 259210000.

Date/timePositionNaut miles runAvg speedWind from/ knotsBaromVisibWave heightAir tempDewpointWater temp
2017-Oct-22 08:00N 61°17' E 004°55'611.4
2017-Oct-22 07:30N 61°22' E 005°02'713.8
2017-Oct-22 07:00N 61°29' E 004°59'713.3
2017-Oct-22 06:30N 61°35' E 004°57'2 4.4
2017-Oct-22 06:00N 61°36' E 005°01'4 8.4
2017-Oct-22 05:29N 61°40' E 004°58'612.3
2017-Oct-22 05:00N 61°46' E 005°01'715.0
2017-Oct-22 04:31N 61°50' E 005°15'610.9
2017-Oct-22 04:00N 61°54' E 005°08'2 4.0
2017-Oct-22 03:30N 61°56' E 005°07'1 2.1
2017-Oct-22 03:00N 61°57' E 005°09'814.8
2017-Oct-22 02:30N 62°05' E 005°07'714.3
2017-Oct-22 02:00N 62°12' E 005°05'714.5
2017-Oct-22 01:30N 62°16' E 005°18'815.1
2017-Oct-22 01:00N 62°19' E 005°33'611.3
2017-Oct-22 00:30N 62°20' E 005°44'2 3.3
2017-Oct-22 00:00N 62°22' E 005°46'612.4
2017-Oct-21 23:30N 62°26' E 005°56'713.6
2017-Oct-21 23:01N 62°29' E 006°09'0 0.3
2017-Oct-21 22:30N 62°29' E 006°09'0 0.0
2017-Oct-21 22:00N 62°29' E 006°09'510.3
2017-Oct-21 21:30N 62°34' E 006°11'714.1
2017-Oct-21 21:00N 62°37' E 006°24'815.8
2017-Oct-21 20:30N 62°39' E 006°41'815.8
2017-Oct-21 20:00N 62°42' E 006°57'612.2
2017-Oct-21 19:30N 62°44' E 007°09'0 0.0
2017-Oct-21 19:00N 62°44' E 007°10'1 2.1
2017-Oct-21 18:30N 62°44' E 007°07'510.1
2017-Oct-21 18:00N 62°46' E 006°57'713.1
2017-Oct-21 17:30N 62°52' E 006°55'612.2
2017-Oct-21 17:00N 62°58' E 006°52'714.2
2017-Oct-21 16:30N 63°01' E 007°06'714.8
2017-Oct-21 16:00N 63°04' E 007°22'715.0
2017-Oct-21 15:30N 63°07' E 007°36'4 7.3
2017-Oct-21 15:00N 63°07' E 007°44'0 0.0
2017-Oct-21 14:30N 63°07' E 007°44'9 8.7
2017-Oct-21 13:30N 63°14' E 007°57'815.1
2017-Oct-21 13:00N 63°17' E 008°11'815.4
2017-Oct-21 12:29N 63°23' E 008°25'715.2
2017-Oct-21 12:00N 63°26' E 008°40'814.9
2017-Oct-21 11:30N 63°28' E 008°56'714.1
2017-Oct-21 11:00N 63°31' E 009°10'714.1
2017-Oct-21 10:30N 63°35' E 009°24'715.0
2017-Oct-21 10:00N 63°38' E 009°38'612.1
2017-Oct-21 09:30N 63°35' E 009°50'815.2
2017-Oct-21 09:00N 63°29' E 009°59'815.1
2017-Oct-21 08:30N 63°28' E 010°16'4 8.0
2017-Oct-21 08:00N 63°27' E 010°24'0 0.0
2017-Oct-21 07:30N 63°27' E 010°24'0 0.0
2017-Oct-21 07:00N 63°27' E 010°24'0 0.0
2017-Oct-21 06:30N 63°27' E 010°24'0 0.0
2017-Oct-21 06:00N 63°27' E 010°24'0 0.0
2017-Oct-21 05:30N 63°27' E 010°24'0 0.0
2017-Oct-21 05:00N 63°27' E 010°24'0 0.0
2017-Oct-21 04:30N 63°27' E 010°24'3 5.1
2017-Oct-21 04:00N 63°27' E 010°19'815.9
2017-Oct-21 03:31N 63°29' E 010°02'713.8
2017-Oct-21 03:01N 63°34' E 009°51'712.7
2017-Oct-21 02:30N 63°39' E 009°43'613.0
2017-Oct-21 02:00N 63°38' E 009°29'713.6
2017-Oct-21 01:30N 63°44' E 009°23'713.2
2017-Oct-21 01:00N 63°51' E 009°21'714.9
2017-Oct-21 00:30N 63°58' E 009°27'714.4
2017-Oct-21 00:00N 64°04' E 009°34'714.3
2017-Oct-20 23:30N 64°11' E 009°41'714.3
2017-Oct-20 23:00N 64°17' E 009°50'714.7
2017-Oct-20 22:30N 64°22' E 010°02'714.7
2017-Oct-20 22:00N 64°27' E 010°14'815.3
2017-Oct-20 21:30N 64°32' E 010°27'815.1
2017-Oct-20 21:00N 64°38' E 010°39'814.8
2017-Oct-20 20:30N 64°43' E 010°52'714.5
2017-Oct-20 20:00N 64°47' E 011°05'611.9
2017-Oct-20 19:30N 64°52' E 011°14'0 0.0
2017-Oct-20 19:00N 64°52' E 011°14'0 0.1
2017-Oct-20 18:31N 64°52' E 011°14'611.8
2017-Oct-20 18:00N 64°56' E 011°23'713.5
2017-Oct-20 17:31N 65°01' E 011°34'714.5
2017-Oct-20 17:00N 65°06' E 011°48'714.9
2017-Oct-20 16:30N 65°13' E 011°53'814.8
2017-Oct-20 16:00N 65°20' E 012°01'510.6
2017-Oct-20 15:30N 65°24' E 012°07'5 8.4
2017-Oct-20 14:55N 65°29' E 012°13'0 0.0
2017-Oct-20 14:28N 65°29' E 012°13'2 2.0
2017-Oct-20 13:31N 65°30' E 012°12'815.0
2017-Oct-20 13:00N 65°38' E 012°15'815.1
2017-Oct-20 12:30N 65°45' E 012°18'714.9
2017-Oct-20 12:00N 65°53' E 012°22'713.8
2017-Oct-20 11:30N 65°59' E 012°29'5 9.2
2017-Oct-20 11:00N 66°01' E 012°38'0 0.0
2017-Oct-20 10:29N 66°01' E 012°38'4 8.3
2017-Oct-20 10:00N 66°05' E 012°42'814.9
2017-Oct-20 09:30N 66°10' E 012°56'3 5.3
2017-Oct-20 09:00N 66°12' E 013°00'4 8.0
2017-Oct-20 08:30N 66°15' E 012°55'714.3
2017-Oct-20 08:00N 66°22' E 012°57'714.5
2017-Oct-20 07:30N 66°30' E 012°59'713.8
2017-Oct-20 07:00N 66°36' E 012°59'613.0
2017-Oct-20 06:30N 66°41' E 013°09'714.1
2017-Oct-20 06:00N 66°47' E 013°19'815.2
2017-Oct-20 05:30N 66°50' E 013°37'3 6.3
2017-Oct-20 05:01N 66°52' E 013°42'611.8
2017-Oct-20 04:30N 66°56' E 013°29'612.6
2017-Oct-20 04:00N 66°59' E 013°42'815.4
2017-Oct-20 03:31N 67°05' E 013°56'815.0
2017-Oct-20 03:01N 67°11' E 014°06'815.4
2017-Oct-20 02:31N 67°17' E 014°20'1 2.5
2017-Oct-20 02:01N 67°17' E 014°23'0 0.0
2017-Oct-20 01:30N 67°17' E 014°23'0 0.0
2017-Oct-20 01:00N 67°17' E 014°23'0 0.0
2017-Oct-20 00:31N 67°17' E 014°23'3 6.6
2017-Oct-20 00:01N 67°21' E 014°23'713.5
2017-Oct-19 23:30N 67°27' E 014°24'714.4
2017-Oct-19 23:00N 67°34' E 014°19'714.2
2017-Oct-19 22:30N 67°41' E 014°13'714.1
2017-Oct-19 22:00N 67°48' E 014°07'714.2
2017-Oct-19 21:30N 67°54' E 014°01'714.5
2017-Oct-19 21:00N 68°01' E 013°54'612.5
2017-Oct-19 20:30N 68°07' E 013°50'0 0.2
2017-Oct-19 20:00N 68°07' E 013°50'611.8
2017-Oct-19 19:30N 68°07' E 014°06'714.8
2017-Oct-19 19:00N 68°11' E 014°23'510.1
2017-Oct-19 18:30N 68°14' E 014°34'0 0.0
2017-Oct-19 17:56N 68°14' E 014°34'0 0.0
2017-Oct-19 17:26N 68°14' E 014°34'0 0.0
2017-Oct-19 16:56N 68°14' E 014°34'0 0.0
2017-Oct-19 16:30N 68°14' E 014°34'4 8.4
2017-Oct-19 16:00N 68°14' E 014°46'611.3
2017-Oct-19 15:30N 68°17' E 014°58'5 9.4
2017-Oct-19 15:00N 68°22' E 014°57'3 5.7
2017-Oct-19 14:30N 68°23' E 015°04'713.9
2017-Oct-19 14:00N 68°29' E 015°13'713.8
2017-Oct-19 13:30N 68°34' E 015°01'2 4.6
2017-Oct-19 13:00N 68°34' E 014°55'0 0.0
2017-Oct-19 12:30N 68°34' E 014°55'2 3.7
2017-Oct-19 12:00N 68°34' E 014°60'714.0
2017-Oct-19 11:30N 68°38' E 015°17'510.4
2017-Oct-19 11:00N 68°42' E 015°25'0 0.0
2017-Oct-19 10:30N 68°42' E 015°25'4 8.2
2017-Oct-19 10:00N 68°46' E 015°26'715.0
2017-Oct-19 09:30N 68°53' E 015°32'511.1
2017-Oct-19 09:01N 68°58' E 015°39'2 3.6
2017-Oct-19 08:30N 68°59' E 015°43'713.3
2017-Oct-19 08:00N 68°58' E 016°02'714.5
2017-Oct-19 07:30N 68°55' E 016°20'714.2
2017-Oct-19 07:00N 68°51' E 016°36'3 7.0
2017-Oct-19 06:30N 68°48' E 016°33'0 0.0
2017-Oct-19 06:00N 68°48' E 016°33'4 8.0
2017-Oct-19 05:30N 68°50' E 016°42'815.4
2017-Oct-19 05:00N 68°55' E 016°59'714.9
2017-Oct-19 04:30N 68°60' E 017°15'714.9
2017-Oct-19 04:00N 69°06' E 017°27'714.8
2017-Oct-19 03:30N 69°09' E 017°47'612.1
2017-Oct-19 03:00N 69°13' E 017°59'1 2.5
2017-Oct-19 02:30N 69°14' E 017°58'4 8.0
2017-Oct-19 02:00N 69°18' E 017°58'713.0
2017-Oct-19 01:30N 69°24' E 018°06'713.1
2017-Oct-19 01:00N 69°30' E 018°14'715.0
2017-Oct-19 00:30N 69°32' E 018°34'714.0
2017-Oct-19 00:00N 69°36' E 018°52'4 8.0
2017-Oct-18 23:30N 69°39' E 018°58'0 0.0
2017-Oct-18 22:58N 69°39' E 018°58'0 0.0
2017-Oct-18 22:28N 69°39' E 018°58'0 0.0
2017-Oct-18 22:00N 69°39' E 018°58'1 1.7
2017-Oct-18 21:30N 69°40' E 018°59'713.5
2017-Oct-18 20:59N 69°46' E 019°07'714.3
2017-Oct-18 20:30N 69°48' E 019°25'714.6
2017-Oct-18 20:00N 69°51' E 019°45'714.3
2017-Oct-18 19:30N 69°56' E 020°01'714.5
2017-Oct-18 19:00N 69°60' E 020°19'714.5
2017-Oct-18 18:30N 70°02' E 020°39'714.7
2017-Oct-18 18:00N 70°04' E 020°60'2 3.8
2017-Oct-18 17:30N 70°02' E 020°59'3 5.2
2017-Oct-18 17:00N 70°04' E 021°03'815.2
2017-Oct-18 16:30N 70°12' E 021°07'714.3
2017-Oct-18 16:00N 70°17' E 021°22'611.7
2017-Oct-18 15:30N 70°19' E 021°38'4 8.0
2017-Oct-18 15:00N 70°18' E 021°48'1111.0
2017-Oct-18 14:00N 70°15' E 022°20'2 3.6
2017-Oct-18 13:30N 70°16' E 022°19'713.9
2017-Oct-18 13:00N 70°23' E 022°24'714.7
2017-Oct-18 12:30N 70°27' E 022°42'714.4
2017-Oct-18 12:00N 70°32' E 022°59'714.0
2017-Oct-18 11:30N 70°36' E 023°14'613.0
2017-Oct-18 11:00N 70°39' E 023°32'3 5.9
2017-Oct-18 10:30N 70°40' E 023°41'0 0.0
2017-Oct-18 10:00N 70°40' E 023°41'0 0.0
2017-Oct-18 09:30N 70°40' E 023°41'0 0.0
2017-Oct-18 09:00N 70°40' E 023°41'2 3.6
2017-Oct-18 08:30N 70°40' E 023°36'712.9
2017-Oct-18 08:00N 70°46' E 023°42'714.6
2017-Oct-18 07:30N 70°51' E 023°58'815.2
2017-Oct-18 07:00N 70°56' E 024°15'815.2
2017-Oct-18 06:30N 71°02' E 024°32'3 7.0
2017-Oct-18 06:00N 70°60' E 024°41'1 2.2
2017-Oct-18 05:30N 70°60' E 024°45'714.9
2017-Oct-18 05:00N 70°59' E 025°07'714.8
2017-Oct-18 04:30N 70°57' E 025°29'714.6
2017-Oct-18 04:00N 70°57' E 025°51'3 6.3
2017-Oct-18 03:30N 70°59' E 025°58'2 4.4
2017-Oct-18 03:00N 70°58' E 026°04'815.7
2017-Oct-18 02:29N 70°59' E 026°28'815.3
2017-Oct-18 02:00N 70°59' E 026°52'815.0
2017-Oct-18 01:30N 70°58' E 027°15'2 4.9
2017-Oct-18 01:00N 70°57' E 027°20'612.1
2017-Oct-18 00:30N 71°02' E 027°11'714.6
2017-Oct-18 00:00N 71°07' E 027°29'611.3
2017-Oct-17 23:30N 71°07' E 027°46'4 4.0
2017-Oct-17 22:35N 71°04' E 027°52'114.3
2017-Oct-17 22:30N 71°05' E 027°54'714.1
2017-Oct-17 22:00N 71°07' E 028°15'714.5
2017-Oct-17 21:30N 71°03' E 028°32'815.1
2017-Oct-17 21:00N 70°58' E 028°50'815.2
2017-Oct-17 20:30N 70°53' E 029°09'2 3.7
2017-Oct-17 19:59N 70°52' E 029°07'611.9
2017-Oct-17 19:30N 70°50' E 029°24'714.7
2017-Oct-17 19:00N 70°46' E 029°42'712.8
2017-Oct-17 18:30N 70°40' E 029°49'3 5.2
2017-Oct-17 18:00N 70°38' E 029°44'3 5.9
2017-Oct-17 17:30N 70°40' E 029°50'713.8
2017-Oct-17 17:00N 70°43' E 030°09'815.6
2017-Oct-17 16:29N 70°38' E 030°27'715.4
2017-Oct-17 16:00N 70°33' E 030°43'714.4
2017-Oct-17 15:30N 70°27' E 030°58'611.5
2017-Oct-17 15:00N 70°23' E 031°06'0 0.0
2017-Oct-17 14:28N 70°23' E 031°06'1 1.3
2017-Oct-17 14:00N 70°23' E 031°07'612.7
2017-Oct-17 13:30N 70°17' E 031°05'713.5
2017-Oct-17 13:00N 70°12' E 030°52'713.7
2017-Oct-17 12:30N 70°06' E 030°40'714.0
2017-Oct-17 12:00N 70°01' E 030°27'713.8
2017-Oct-17 11:30N 69°55' E 030°14'713.6
2017-Oct-17 11:00N 69°49' E 030°07'611.1
2017-Oct-17 10:30N 69°44' E 030°04'0 0.0
2017-Oct-17 10:00N 69°44' E 030°04'0 0.0
2017-Oct-17 09:30N 69°44' E 030°04'0 0.0
2017-Oct-17 09:00N 69°44' E 030°04'0 0.0
2017-Oct-17 08:30N 69°44' E 030°04'0 0.0
2017-Oct-17 08:00N 69°44' E 030°04'0 0.0
2017-Oct-17 07:30N 69°44' E 030°04'0 0.5
2017-Oct-17 07:00N 69°44' E 030°04'713.4
2017-Oct-17 06:30N 69°51' E 030°04'714.3
2017-Oct-17 06:00N 69°57' E 029°54'714.5
2017-Oct-17 05:30N 70°03' E 029°43'1 2.3
2017-Oct-17 05:00N 70°04' E 029°44'1 1.5
2017-Oct-17 04:30N 70°04' E 029°42'714.2
2017-Oct-17 04:00N 70°03' E 030°02'815.8
2017-Oct-17 03:30N 70°06' E 030°24'816.1
2017-Oct-17 03:00N 70°11' E 030°44'816.2
2017-Oct-17 02:30N 70°16' E 031°02'714.9
2017-Oct-17 02:00N 70°23' E 031°08'1 1.8
2017-Oct-17 01:30N 70°23' E 031°06'714.0
2017-Oct-17 01:00N 70°29' E 030°56'815.1
2017-Oct-17 00:29N 70°35' E 030°39'715.1
2017-Oct-17 00:00N 70°39' E 030°22'714.7
2017-Oct-16 23:30N 70°44' E 030°04'715.0
2017-Oct-16 23:00N 70°39' E 029°47'2 3.1
2017-Oct-16 22:30N 70°38' E 029°44'713.3
2017-Oct-16 22:00N 70°44' E 029°47'815.2
2017-Oct-16 21:30N 70°49' E 029°29'714.0
2017-Oct-16 21:00N 70°52' E 029°10'1 1.1
2017-Oct-16 20:30N 70°52' E 029°08'2 3.5
2017-Oct-16 20:00N 70°54' E 029°06'612.2
2017-Oct-16 19:30N 70°57' E 028°51'713.9
2017-Oct-16 19:00N 71°02' E 028°35'713.5
2017-Oct-16 18:30N 71°06' E 028°19'612.2
2017-Oct-16 18:00N 71°06' E 027°60'4 3.9
2017-Oct-16 17:02N 71°05' E 027°49'014.2
2017-Oct-16 17:00N 71°05' E 027°49'510.0
2017-Oct-16 16:30N 71°08' E 027°35'714.2
2017-Oct-16 15:59N 71°04' E 027°17'611.8
2017-Oct-16 15:30N 70°58' E 027°17'1 2.5
2017-Oct-16 15:00N 70°57' E 027°20'1413.8
2017-Oct-16 14:00N 70°59' E 026°38'714.9
2017-Oct-16 13:30N 70°58' E 026°16'611.6
2017-Oct-16 13:00N 70°59' E 025°57'0 0.6
2017-Oct-16 12:28N 70°59' E 025°58'0 0.0
2017-Oct-16 11:58N 70°59' E 025°58'0 0.0
2017-Oct-16 11:28N 70°59' E 025°58'0 0.0
2017-Oct-16 10:58N 70°59' E 025°58'0 0.0
2017-Oct-16 10:28N 70°59' E 025°58'0 0.0
2017-Oct-16 09:58N 70°59' E 025°58'0 0.0
2017-Oct-16 09:28N 70°59' E 025°58'1 3.0
2017-Oct-16 09:00N 70°58' E 025°55'714.6
2017-Oct-16 08:30N 70°56' E 025°34'714.9
2017-Oct-16 08:00N 70°59' E 025°14'714.6
2017-Oct-16 07:30N 70°60' E 024°52'3 6.9
2017-Oct-16 07:00N 70°60' E 024°41'1 2.1
2017-Oct-16 06:30N 71°01' E 024°43'612.4
2017-Oct-16 06:00N 70°59' E 024°25'714.9
2017-Oct-16 05:30N 70°54' E 024°08'714.8
2017-Oct-16 05:00N 70°49' E 023°51'714.8
2017-Oct-16 04:30N 70°43' E 023°37'4 7.8
2017-Oct-16 04:00N 70°40' E 023°41'0 0.0
2017-Oct-16 03:30N 70°40' E 023°41'1 1.3
2017-Oct-16 03:00N 70°40' E 023°39'714.6
2017-Oct-16 02:30N 70°37' E 023°18'815.5
2017-Oct-16 02:00N 70°32' E 023°01'714.9
2017-Oct-16 01:30N 70°27' E 022°43'815.1
2017-Oct-16 01:00N 70°23' E 022°24'713.5
2017-Oct-16 00:30N 70°17' E 022°19'3 5.1
2017-Oct-16 00:00N 70°14' E 022°21'510.7
2017-Oct-15 23:30N 70°19' E 022°12'714.4
2017-Oct-15 23:00N 70°22' E 021°54'612.1
2017-Oct-15 22:30N 70°22' E 021°36'815.0
2017-Oct-15 22:00N 70°17' E 021°20'714.2
2017-Oct-15 21:31N 70°11' E 021°07'815.0
2017-Oct-15 21:00N 70°04' E 021°03'2 4.3
2017-Oct-15 20:30N 70°02' E 020°59'2 3.8
2017-Oct-15 20:00N 70°04' E 020°59'815.5
2017-Oct-15 19:30N 70°01' E 020°37'815.3
2017-Oct-15 19:00N 69°59' E 020°16'714.7
2017-Oct-15 18:30N 69°55' E 019°59'714.9
2017-Oct-15 18:00N 69°50' E 019°41'815.1
2017-Oct-15 17:30N 69°48' E 019°21'714.2
2017-Oct-15 17:00N 69°44' E 019°03'510.4
2017-Oct-15 16:30N 69°39' E 018°58'0 0.0
2017-Oct-15 16:00N 69°39' E 018°58'0 0.0
2017-Oct-15 15:30N 69°39' E 018°58'0 0.0
2017-Oct-15 15:00N 69°39' E 018°58'0 0.0
2017-Oct-15 14:00N 69°39' E 018°58'0 0.0
2017-Oct-15 13:30N 69°39' E 018°58'0 0.0
2017-Oct-15 13:00N 69°39' E 018°58'0 0.0
2017-Oct-15 12:30N 69°39' E 018°58'2 4.9
2017-Oct-15 12:00N 69°37' E 018°55'713.0
2017-Oct-15 11:30N 69°33' E 018°40'714.4
2017-Oct-15 11:00N 69°30' E 018°20'612.7
2017-Oct-15 10:30N 69°26' E 018°08'713.5
2017-Oct-15 10:00N 69°19' E 018°00'611.5
2017-Oct-15 09:30N 69°14' E 017°58'0 0.0
2017-Oct-15 08:59N 69°14' E 017°58'3 6.3
2017-Oct-15 08:29N 69°11' E 017°60'714.4
2017-Oct-15 08:00N 69°08' E 017°42'714.4
2017-Oct-15 07:30N 69°05' E 017°23'714.2
2017-Oct-15 07:00N 68°59' E 017°12'714.7
2017-Oct-15 06:30N 68°54' E 016°56'714.5
2017-Oct-15 06:00N 68°50' E 016°40'3 6.0
2017-Oct-15 05:29N 68°48' E 016°33'0 0.0
2017-Oct-15 04:59N 68°48' E 016°33'0 0.5
2017-Oct-15 04:30N 68°48' E 016°34'510.8
2017-Oct-15 04:00N 68°53' E 016°27'714.8
2017-Oct-15 03:30N 68°57' E 016°10'714.3
2017-Oct-15 03:00N 68°59' E 015°51'5 8.9
2017-Oct-15 02:30N 68°58' E 015°39'3 6.9
2017-Oct-15 02:00N 68°55' E 015°35'814.8
2017-Oct-15 01:29N 68°48' E 015°26'612.3
2017-Oct-15 00:59N 68°42' E 015°25'0 0.0
2017-Oct-15 00:30N 68°42' E 015°25'5 9.4
2017-Oct-15 00:00N 68°38' E 015°20'714.7
2017-Oct-14 23:30N 68°34' E 015°02'3 5.3
2017-Oct-14 23:00N 68°34' E 014°55'4 7.0
2017-Oct-14 22:30N 68°33' E 015°04'612.6
2017-Oct-14 22:00N 68°28' E 015°12'815.1
2017-Oct-14 21:30N 68°21' E 015°03'714.5
2017-Oct-14 21:00N 68°14' E 014°55'612.2
2017-Oct-14 20:30N 68°13' E 014°39'2 3.9
2017-Oct-14 19:58N 68°14' E 014°34'0 0.0
2017-Oct-14 19:28N 68°14' E 014°34'1 1.2
2017-Oct-14 19:00N 68°13' E 014°34'612.3
2017-Oct-14 18:30N 68°10' E 014°20'713.8
2017-Oct-14 18:00N 68°07' E 014°03'5 9.6
2017-Oct-14 17:30N 68°07' E 013°50'0 0.1
2017-Oct-14 17:00N 68°07' E 013°50'4 8.3
2017-Oct-14 16:30N 68°03' E 013°53'714.7
2017-Oct-14 16:00N 67°56' E 013°59'714.5
2017-Oct-14 15:30N 67°50' E 014°06'714.3
2017-Oct-14 15:00N 67°43' E 014°12'714.4
2017-Oct-14 14:30N 67°36' E 014°18'714.5
2017-Oct-14 14:00N 67°29' E 014°23'713.9
2017-Oct-14 13:31N 67°22' E 014°24'5 9.5
2017-Oct-14 13:00N 67°17' E 014°23'0 0.0
2017-Oct-14 12:28N 67°17' E 014°23'0 0.0
2017-Oct-14 11:58N 67°17' E 014°23'0 0.0
2017-Oct-14 11:28N 67°17' E 014°23'0 0.0
2017-Oct-14 10:58N 67°17' E 014°23'0 0.0
2017-Oct-14 10:28N 67°17' E 014°23'2 3.6
2017-Oct-14 10:01N 67°16' E 014°20'815.0
2017-Oct-14 09:31N 67°11' E 014°06'715.0
2017-Oct-14 09:01N 67°05' E 013°55'815.0
2017-Oct-14 08:30N 66°59' E 013°42'612.3
2017-Oct-14 08:00N 66°55' E 013°29'612.0
2017-Oct-14 07:30N 66°52' E 013°42'2 4.8
2017-Oct-14 07:00N 66°50' E 013°39'715.0
2017-Oct-14 06:30N 66°48' E 013°21'714.5
2017-Oct-14 06:00N 66°42' E 013°10'814.7
2017-Oct-14 05:30N 66°35' E 013°05'612.9
2017-Oct-14 05:00N 66°29' E 012°60'815.3
2017-Oct-14 04:30N 66°21' E 012°58'815.3
2017-Oct-14 04:00N 66°14' E 012°54'3 6.3
2017-Oct-14 03:30N 66°12' E 013°00'611.6
2017-Oct-14 03:00N 66°08' E 012°50'714.6
2017-Oct-14 02:30N 66°03' E 012°38'1 2.2
2017-Oct-14 02:00N 66°01' E 012°38'1 1.1
2017-Oct-14 01:30N 66°02' E 012°37'815.0
2017-Oct-14 01:00N 65°56' E 012°24'715.1
2017-Oct-14 00:30N 65°49' E 012°21'815.4
2017-Oct-14 00:00N 65°41' E 012°16'815.6
2017-Oct-13 23:30N 65°34' E 012°13'510.1
2017-Oct-13 22:59N 65°29' E 012°13'1 1.9
2017-Oct-13 22:30N 65°28' E 012°11'714.8
2017-Oct-13 22:00N 65°21' E 012°03'816.0
2017-Oct-13 21:30N 65°14' E 011°55'815.4
2017-Oct-13 21:00N 65°07' E 011°49'815.1
2017-Oct-13 20:31N 65°01' E 011°39'714.7
2017-Oct-13 20:00N 64°56' E 011°26'612.8
2017-Oct-13 19:30N 64°52' E 011°14'0 0.0
2017-Oct-13 19:00N 64°52' E 011°14'2 4.3
2017-Oct-13 18:31N 64°50' E 011°11'714.5
2017-Oct-13 18:00N 64°45' E 010°59'714.6
2017-Oct-13 17:30N 64°40' E 010°46'714.7
2017-Oct-13 17:00N 64°35' E 010°35'714.1
2017-Oct-13 16:30N 64°28' E 010°27'714.0
2017-Oct-13 16:00N 64°21' E 010°27'713.3
2017-Oct-13 15:30N 64°15' E 010°20'714.4
2017-Oct-13 15:00N 64°10' E 010°08'713.5
2017-Oct-13 14:30N 64°04' E 010°02'611.5
2017-Oct-13 14:00N 63°59' E 009°55'714.3
2017-Oct-13 13:30N 63°53' E 009°45'714.7
2017-Oct-13 13:00N 63°48' E 009°34'714.1
2017-Oct-13 12:31N 63°41' E 009°30'4 8.2
2017-Oct-13 12:00N 63°39' E 009°37'611.2
2017-Oct-13 11:30N 63°36' E 009°49'714.9
2017-Oct-13 11:01N 63°30' E 009°56'714.8
2017-Oct-13 10:31N 63°28' E 010°12'611.5
2017-Oct-13 10:01N 63°27' E 010°24'0 0.0
2017-Oct-13 09:29N 63°27' E 010°24'0 0.0
2017-Oct-13 08:59N 63°27' E 010°24'0 0.0
2017-Oct-13 08:29N 63°27' E 010°24'0 0.0
2017-Oct-13 07:59N 63°27' E 010°24'0 0.0
2017-Oct-13 07:23N 63°27' E 010°24'0 0.0
2017-Oct-13 06:59N 63°27' E 010°24'0 0.0
2017-Oct-13 06:29N 63°27' E 010°24'2 4.0
2017-Oct-13 06:01N 63°27' E 010°20'714.9
2017-Oct-13 05:31N 63°28' E 010°04'713.1
2017-Oct-13 05:00N 63°32' E 009°52'714.2
2017-Oct-13 04:30N 63°39' E 009°46'714.4
2017-Oct-13 04:00N 63°36' E 009°31'815.8
2017-Oct-13 03:30N 63°32' E 009°16'2115.6
2017-Oct-13 02:09N 63°24' E 008°32'615.2
2017-Oct-13 01:45N 63°21' E 008°21'415.9
2017-Oct-13 01:30N 63°18' E 008°14'815.7
2017-Oct-13 01:01N 63°14' E 007°60'815.2
2017-Oct-13 00:30N 63°10' E 007°46'3 5.7
2017-Oct-13 00:00N 63°07' E 007°44'2 3.3
2017-Oct-12 23:31N 63°07' E 007°41'613.0
2017-Oct-12 23:01N 63°05' E 007°27'714.1
2017-Oct-12 22:31N 63°02' E 007°13'814.5
2017-Oct-12 21:58N 62°59' E 006°56'511.8
2017-Oct-12 21:31N 62°54' E 006°51'713.5
2017-Oct-12 21:00N 62°48' E 006°58'611.0
2017-Oct-12 20:30N 62°44' E 007°04'2 4.6
2017-Oct-12 19:58N 62°44' E 007°10'0 0.4
2017-Oct-12 19:30N 62°44' E 007°09'712.7
2017-Oct-12 18:59N 62°42' E 006°56'714.1
2017-Oct-12 18:30N 62°39' E 006°42'713.9
2017-Oct-12 18:00N 62°38' E 006°27'713.5
2017-Oct-12 17:30N 62°35' E 006°14'713.2
2017-Oct-12 17:00N 62°29' E 006°09'0 0.3
2017-Oct-12 16:29N 62°29' E 006°09'0 0.0
2017-Oct-12 15:59N 62°29' E 006°09'0 0.0
2017-Oct-12 15:29N 62°29' E 006°09'0 0.0
2017-Oct-12 15:00N 62°29' E 006°09'5 8.8
2017-Oct-12 14:30N 62°25' E 006°04'714.3
2017-Oct-12 14:00N 62°23' E 006°19'713.9
2017-Oct-12 13:30N 62°17' E 006°27'4 0.9
2017-Oct-12 09:10N 62°13' E 006°30'315.0
2017-Oct-12 09:00N 62°16' E 006°28'815.1
2017-Oct-12 08:30N 62°23' E 006°21'714.7
2017-Oct-12 08:00N 62°24' E 006°06'  
Track history (hours):
 
Tides and Currents Weather Stations Pressure Air Temp Water Temp Dewpoint Dewpoint Depression Visibility Wind Speed Wind Dir Waves Ship Positions

Finnmarken

Last reported at 2017-Oct-22 08:00 UTC. Time now 2017-Oct-22 08:04 UTC.
Position N 61°17' E 004°55'.

Length 139 m; draft 5.2 m.

Type: Passenger vessel. MMSI: 259210000.

Date/timePositionNaut miles runAvg speedWind from/ knotsBaromVisibWave heightAir tempDewpointWater temp
2017-Oct-22 08:00N 61°17' E 004°55'611.4
2017-Oct-22 07:30N 61°22' E 005°02'713.8
2017-Oct-22 07:00N 61°29' E 004°59'713.3
2017-Oct-22 06:30N 61°35' E 004°57'2 4.4
2017-Oct-22 06:00N 61°36' E 005°01'4 8.4
2017-Oct-22 05:29N 61°40' E 004°58'612.3
2017-Oct-22 05:00N 61°46' E 005°01'715.0
2017-Oct-22 04:31N 61°50' E 005°15'610.9
2017-Oct-22 04:00N 61°54' E 005°08'2 4.0
2017-Oct-22 03:30N 61°56' E 005°07'1 2.1
2017-Oct-22 03:00N 61°57' E 005°09'814.8
2017-Oct-22 02:30N 62°05' E 005°07'714.3
2017-Oct-22 02:00N 62°12' E 005°05'714.5
2017-Oct-22 01:30N 62°16' E 005°18'815.1
2017-Oct-22 01:00N 62°19' E 005°33'611.3
2017-Oct-22 00:30N 62°20' E 005°44'2 3.3
2017-Oct-22 00:00N 62°22' E 005°46'612.4
2017-Oct-21 23:30N 62°26' E 005°56'713.6
2017-Oct-21 23:01N 62°29' E 006°09'0 0.3
2017-Oct-21 22:30N 62°29' E 006°09'0 0.0
2017-Oct-21 22:00N 62°29' E 006°09'510.3
2017-Oct-21 21:30N 62°34' E 006°11'714.1
2017-Oct-21 21:00N 62°37' E 006°24'815.8
2017-Oct-21 20:30N 62°39' E 006°41'815.8
2017-Oct-21 20:00N 62°42' E 006°57'612.2
2017-Oct-21 19:30N 62°44' E 007°09'0 0.0
2017-Oct-21 19:00N 62°44' E 007°10'1 2.1
2017-Oct-21 18:30N 62°44' E 007°07'510.1
2017-Oct-21 18:00N 62°46' E 006°57'713.1
2017-Oct-21 17:30N 62°52' E 006°55'612.2
2017-Oct-21 17:00N 62°58' E 006°52'714.2
2017-Oct-21 16:30N 63°01' E 007°06'714.8
2017-Oct-21 16:00N 63°04' E 007°22'715.0
2017-Oct-21 15:30N 63°07' E 007°36'4 7.3
2017-Oct-21 15:00N 63°07' E 007°44'0 0.0
2017-Oct-21 14:30N 63°07' E 007°44'9 8.7
2017-Oct-21 13:30N 63°14' E 007°57'815.1
2017-Oct-21 13:00N 63°17' E 008°11'815.4
2017-Oct-21 12:29N 63°23' E 008°25'715.2
2017-Oct-21 12:00N 63°26' E 008°40'814.9
2017-Oct-21 11:30N 63°28' E 008°56'714.1
2017-Oct-21 11:00N 63°31' E 009°10'714.1
2017-Oct-21 10:30N 63°35' E 009°24'715.0
2017-Oct-21 10:00N 63°38' E 009°38'612.1
2017-Oct-21 09:30N 63°35' E 009°50'815.2
2017-Oct-21 09:00N 63°29' E 009°59'815.1
2017-Oct-21 08:30N 63°28' E 010°16'4 8.0
2017-Oct-21 08:00N 63°27' E 010°24'0 0.0
2017-Oct-21 07:30N 63°27' E 010°24'0 0.0
2017-Oct-21 07:00N 63°27' E 010°24'0 0.0
2017-Oct-21 06:30N 63°27' E 010°24'0 0.0
2017-Oct-21 06:00N 63°27' E 010°24'0 0.0
2017-Oct-21 05:30N 63°27' E 010°24'0 0.0
2017-Oct-21 05:00N 63°27' E 010°24'0 0.0
2017-Oct-21 04:30N 63°27' E 010°24'3 5.1
2017-Oct-21 04:00N 63°27' E 010°19'815.9
2017-Oct-21 03:31N 63°29' E 010°02'713.8
2017-Oct-21 03:01N 63°34' E 009°51'712.7
2017-Oct-21 02:30N 63°39' E 009°43'613.0
2017-Oct-21 02:00N 63°38' E 009°29'713.6
2017-Oct-21 01:30N 63°44' E 009°23'713.2
2017-Oct-21 01:00N 63°51' E 009°21'714.9
2017-Oct-21 00:30N 63°58' E 009°27'714.4
2017-Oct-21 00:00N 64°04' E 009°34'714.3
2017-Oct-20 23:30N 64°11' E 009°41'714.3
2017-Oct-20 23:00N 64°17' E 009°50'714.7
2017-Oct-20 22:30N 64°22' E 010°02'714.7
2017-Oct-20 22:00N 64°27' E 010°14'815.3
2017-Oct-20 21:30N 64°32' E 010°27'815.1
2017-Oct-20 21:00N 64°38' E 010°39'814.8
2017-Oct-20 20:30N 64°43' E 010°52'714.5
2017-Oct-20 20:00N 64°47' E 011°05'611.9
2017-Oct-20 19:30N 64°52' E 011°14'0 0.0
2017-Oct-20 19:00N 64°52' E 011°14'0 0.1
2017-Oct-20 18:31N 64°52' E 011°14'611.8
2017-Oct-20 18:00N 64°56' E 011°23'713.5
2017-Oct-20 17:31N 65°01' E 011°34'714.5
2017-Oct-20 17:00N 65°06' E 011°48'714.9
2017-Oct-20 16:30N 65°13' E 011°53'814.8
2017-Oct-20 16:00N 65°20' E 012°01'510.6
2017-Oct-20 15:30N 65°24' E 012°07'5 8.4
2017-Oct-20 14:55N 65°29' E 012°13'0 0.0
2017-Oct-20 14:28N 65°29' E 012°13'2 2.0
2017-Oct-20 13:31N 65°30' E 012°12'815.0
2017-Oct-20 13:00N 65°38' E 012°15'815.1
2017-Oct-20 12:30N 65°45' E 012°18'714.9
2017-Oct-20 12:00N 65°53' E 012°22'713.8
2017-Oct-20 11:30N 65°59' E 012°29'5 9.2
2017-Oct-20 11:00N 66°01' E 012°38'0 0.0
2017-Oct-20 10:29N 66°01' E 012°38'4 8.3
2017-Oct-20 10:00N 66°05' E 012°42'814.9
2017-Oct-20 09:30N 66°10' E 012°56'3 5.3
2017-Oct-20 09:00N 66°12' E 013°00'4 8.0
2017-Oct-20 08:30N 66°15' E 012°55'714.3
2017-Oct-20 08:00N 66°22' E 012°57'714.5
2017-Oct-20 07:30N 66°30' E 012°59'713.8
2017-Oct-20 07:00N 66°36' E 012°59'613.0
2017-Oct-20 06:30N 66°41' E 013°09'714.1
2017-Oct-20 06:00N 66°47' E 013°19'815.2
2017-Oct-20 05:30N 66°50' E 013°37'3 6.3
2017-Oct-20 05:01N 66°52' E 013°42'611.8
2017-Oct-20 04:30N 66°56' E 013°29'612.6
2017-Oct-20 04:00N 66°59' E 013°42'815.4
2017-Oct-20 03:31N 67°05' E 013°56'815.0
2017-Oct-20 03:01N 67°11' E 014°06'815.4
2017-Oct-20 02:31N 67°17' E 014°20'1 2.5
2017-Oct-20 02:01N 67°17' E 014°23'0 0.0
2017-Oct-20 01:30N 67°17' E 014°23'0 0.0
2017-Oct-20 01:00N 67°17' E 014°23'0 0.0
2017-Oct-20 00:31N 67°17' E 014°23'3 6.6
2017-Oct-20 00:01N 67°21' E 014°23'713.5
2017-Oct-19 23:30N 67°27' E 014°24'714.4
2017-Oct-19 23:00N 67°34' E 014°19'714.2
2017-Oct-19 22:30N 67°41' E 014°13'714.1
2017-Oct-19 22:00N 67°48' E 014°07'714.2
2017-Oct-19 21:30N 67°54' E 014°01'714.5
2017-Oct-19 21:00N 68°01' E 013°54'612.5
2017-Oct-19 20:30N 68°07' E 013°50'0 0.2
2017-Oct-19 20:00N 68°07' E 013°50'611.8
2017-Oct-19 19:30N 68°07' E 014°06'714.8
2017-Oct-19 19:00N 68°11' E 014°23'510.1
2017-Oct-19 18:30N 68°14' E 014°34'0 0.0
2017-Oct-19 17:56N 68°14' E 014°34'0 0.0
2017-Oct-19 17:26N 68°14' E 014°34'0 0.0
2017-Oct-19 16:56N 68°14' E 014°34'0 0.0
2017-Oct-19 16:30N 68°14' E 014°34'4 8.4
2017-Oct-19 16:00N 68°14' E 014°46'611.3
2017-Oct-19 15:30N 68°17' E 014°58'5 9.4
2017-Oct-19 15:00N 68°22' E 014°57'3 5.7
2017-Oct-19 14:30N 68°23' E 015°04'713.9
2017-Oct-19 14:00N 68°29' E 015°13'713.8
2017-Oct-19 13:30N 68°34' E 015°01'2 4.6
2017-Oct-19 13:00N 68°34' E 014°55'0 0.0
2017-Oct-19 12:30N 68°34' E 014°55'2 3.7
2017-Oct-19 12:00N 68°34' E 014°60'714.0
2017-Oct-19 11:30N 68°38' E 015°17'510.4
2017-Oct-19 11:00N 68°42' E 015°25'0 0.0
2017-Oct-19 10:30N 68°42' E 015°25'4 8.2
2017-Oct-19 10:00N 68°46' E 015°26'715.0
2017-Oct-19 09:30N 68°53' E 015°32'511.1
2017-Oct-19 09:01N 68°58' E 015°39'2 3.6
2017-Oct-19 08:30N 68°59' E 015°43'713.3
2017-Oct-19 08:00N 68°58' E 016°02'714.5
2017-Oct-19 07:30N 68°55' E 016°20'714.2
2017-Oct-19 07:00N 68°51' E 016°36'3 7.0
2017-Oct-19 06:30N 68°48' E 016°33'0 0.0
2017-Oct-19 06:00N 68°48' E 016°33'4 8.0
2017-Oct-19 05:30N 68°50' E 016°42'815.4
2017-Oct-19 05:00N 68°55' E 016°59'714.9
2017-Oct-19 04:30N 68°60' E 017°15'714.9
2017-Oct-19 04:00N 69°06' E 017°27'714.8
2017-Oct-19 03:30N 69°09' E 017°47'612.1
2017-Oct-19 03:00N 69°13' E 017°59'1 2.5
2017-Oct-19 02:30N 69°14' E 017°58'4 8.0
2017-Oct-19 02:00N 69°18' E 017°58'713.0
2017-Oct-19 01:30N 69°24' E 018°06'713.1
2017-Oct-19 01:00N 69°30' E 018°14'715.0
2017-Oct-19 00:30N 69°32' E 018°34'714.0
2017-Oct-19 00:00N 69°36' E 018°52'4 8.0
2017-Oct-18 23:30N 69°39' E 018°58'0 0.0
2017-Oct-18 22:58N 69°39' E 018°58'0 0.0
2017-Oct-18 22:28N 69°39' E 018°58'0 0.0
2017-Oct-18 22:00N 69°39' E 018°58'1 1.7
2017-Oct-18 21:30N 69°40' E 018°59'713.5
2017-Oct-18 20:59N 69°46' E 019°07'714.3
2017-Oct-18 20:30N 69°48' E 019°25'714.6
2017-Oct-18 20:00N 69°51' E 019°45'714.3
2017-Oct-18 19:30N 69°56' E 020°01'714.5
2017-Oct-18 19:00N 69°60' E 020°19'714.5
2017-Oct-18 18:30N 70°02' E 020°39'714.7
2017-Oct-18 18:00N 70°04' E 020°60'2 3.8
2017-Oct-18 17:30N 70°02' E 020°59'3 5.2
2017-Oct-18 17:00N 70°04' E 021°03'815.2
2017-Oct-18 16:30N 70°12' E 021°07'714.3
2017-Oct-18 16:00N 70°17' E 021°22'611.7
2017-Oct-18 15:30N 70°19' E 021°38'4 8.0
2017-Oct-18 15:00N 70°18' E 021°48'1111.0
2017-Oct-18 14:00N 70°15' E 022°20'2 3.6
2017-Oct-18 13:30N 70°16' E 022°19'713.9
2017-Oct-18 13:00N 70°23' E 022°24'714.7
2017-Oct-18 12:30N 70°27' E 022°42'714.4
2017-Oct-18 12:00N 70°32' E 022°59'714.0
2017-Oct-18 11:30N 70°36' E 023°14'613.0
2017-Oct-18 11:00N 70°39' E 023°32'3 5.9
2017-Oct-18 10:30N 70°40' E 023°41'0 0.0
2017-Oct-18 10:00N 70°40' E 023°41'0 0.0
2017-Oct-18 09:30N 70°40' E 023°41'0 0.0
2017-Oct-18 09:00N 70°40' E 023°41'2 3.6
2017-Oct-18 08:30N 70°40' E 023°36'712.9
2017-Oct-18 08:00N 70°46' E 023°42'714.6
2017-Oct-18 07:30N 70°51' E 023°58'815.2
2017-Oct-18 07:00N 70°56' E 024°15'815.2
2017-Oct-18 06:30N 71°02' E 024°32'3 7.0
2017-Oct-18 06:00N 70°60' E 024°41'1 2.2
2017-Oct-18 05:30N 70°60' E 024°45'714.9
2017-Oct-18 05:00N 70°59' E 025°07'714.8
2017-Oct-18 04:30N 70°57' E 025°29'714.6
2017-Oct-18 04:00N 70°57' E 025°51'3 6.3
2017-Oct-18 03:30N 70°59' E 025°58'2 4.4
2017-Oct-18 03:00N 70°58' E 026°04'815.7
2017-Oct-18 02:29N 70°59' E 026°28'815.3
2017-Oct-18 02:00N 70°59' E 026°52'815.0
2017-Oct-18 01:30N 70°58' E 027°15'2 4.9
2017-Oct-18 01:00N 70°57' E 027°20'612.1
2017-Oct-18 00:30N 71°02' E 027°11'714.6
2017-Oct-18 00:00N 71°07' E 027°29'611.3
2017-Oct-17 23:30N 71°07' E 027°46'4 4.0
2017-Oct-17 22:35N 71°04' E 027°52'114.3
2017-Oct-17 22:30N 71°05' E 027°54'714.1
2017-Oct-17 22:00N 71°07' E 028°15'714.5
2017-Oct-17 21:30N 71°03' E 028°32'815.1
2017-Oct-17 21:00N 70°58' E 028°50'815.2
2017-Oct-17 20:30N 70°53' E 029°09'2 3.7
2017-Oct-17 19:59N 70°52' E 029°07'611.9
2017-Oct-17 19:30N 70°50' E 029°24'714.7
2017-Oct-17 19:00N 70°46' E 029°42'712.8
2017-Oct-17 18:30N 70°40' E 029°49'3 5.2
2017-Oct-17 18:00N 70°38' E 029°44'3 5.9
2017-Oct-17 17:30N 70°40' E 029°50'713.8
2017-Oct-17 17:00N 70°43' E 030°09'815.6
2017-Oct-17 16:29N 70°38' E 030°27'715.4
2017-Oct-17 16:00N 70°33' E 030°43'714.4
2017-Oct-17 15:30N 70°27' E 030°58'611.5
2017-Oct-17 15:00N 70°23' E 031°06'0 0.0
2017-Oct-17 14:28N 70°23' E 031°06'1 1.3
2017-Oct-17 14:00N 70°23' E 031°07'612.7
2017-Oct-17 13:30N 70°17' E 031°05'713.5
2017-Oct-17 13:00N 70°12' E 030°52'713.7
2017-Oct-17 12:30N 70°06' E 030°40'714.0
2017-Oct-17 12:00N 70°01' E 030°27'713.8
2017-Oct-17 11:30N 69°55' E 030°14'713.6
2017-Oct-17 11:00N 69°49' E 030°07'611.1
2017-Oct-17 10:30N 69°44' E 030°04'0 0.0
2017-Oct-17 10:00N 69°44' E 030°04'0 0.0
2017-Oct-17 09:30N 69°44' E 030°04'0 0.0
2017-Oct-17 09:00N 69°44' E 030°04'0 0.0
2017-Oct-17 08:30N 69°44' E 030°04'0 0.0
2017-Oct-17 08:00N 69°44' E 030°04'0 0.0
2017-Oct-17 07:30N 69°44' E 030°04'0 0.5
2017-Oct-17 07:00N 69°44' E 030°04'713.4
2017-Oct-17 06:30N 69°51' E 030°04'714.3
2017-Oct-17 06:00N 69°57' E 029°54'714.5
2017-Oct-17 05:30N 70°03' E 029°43'1 2.3
2017-Oct-17 05:00N 70°04' E 029°44'1 1.5
2017-Oct-17 04:30N 70°04' E 029°42'714.2
2017-Oct-17 04:00N 70°03' E 030°02'815.8
2017-Oct-17 03:30N 70°06' E 030°24'816.1
2017-Oct-17 03:00N 70°11' E 030°44'816.2
2017-Oct-17 02:30N 70°16' E 031°02'714.9
2017-Oct-17 02:00N 70°23' E 031°08'1 1.8
2017-Oct-17 01:30N 70°23' E 031°06'714.0
2017-Oct-17 01:00N 70°29' E 030°56'815.1
2017-Oct-17 00:29N 70°35' E 030°39'715.1
2017-Oct-17 00:00N 70°39' E 030°22'714.7
2017-Oct-16 23:30N 70°44' E 030°04'715.0
2017-Oct-16 23:00N 70°39' E 029°47'2 3.1
2017-Oct-16 22:30N 70°38' E 029°44'713.3
2017-Oct-16 22:00N 70°44' E 029°47'815.2
2017-Oct-16 21:30N 70°49' E 029°29'714.0
2017-Oct-16 21:00N 70°52' E 029°10'1 1.1
2017-Oct-16 20:30N 70°52' E 029°08'2 3.5
2017-Oct-16 20:00N 70°54' E 029°06'612.2
2017-Oct-16 19:30N 70°57' E 028°51'713.9
2017-Oct-16 19:00N 71°02' E 028°35'713.5
2017-Oct-16 18:30N 71°06' E 028°19'612.2
2017-Oct-16 18:00N 71°06' E 027°60'4 3.9
2017-Oct-16 17:02N 71°05' E 027°49'014.2
2017-Oct-16 17:00N 71°05' E 027°49'510.0
2017-Oct-16 16:30N 71°08' E 027°35'714.2
2017-Oct-16 15:59N 71°04' E 027°17'611.8
2017-Oct-16 15:30N 70°58' E 027°17'1 2.5
2017-Oct-16 15:00N 70°57' E 027°20'1413.8
2017-Oct-16 14:00N 70°59' E 026°38'714.9
2017-Oct-16 13:30N 70°58' E 026°16'611.6
2017-Oct-16 13:00N 70°59' E 025°57'0 0.6
2017-Oct-16 12:28N 70°59' E 025°58'0 0.0
2017-Oct-16 11:58N 70°59' E 025°58'0 0.0
2017-Oct-16 11:28N 70°59' E 025°58'0 0.0
2017-Oct-16 10:58N 70°59' E 025°58'0 0.0
2017-Oct-16 10:28N 70°59' E 025°58'0 0.0
2017-Oct-16 09:58N 70°59' E 025°58'0 0.0
2017-Oct-16 09:28N 70°59' E 025°58'1 3.0
2017-Oct-16 09:00N 70°58' E 025°55'714.6
2017-Oct-16 08:30N 70°56' E 025°34'714.9
2017-Oct-16 08:00N 70°59' E 025°14'714.6
2017-Oct-16 07:30N 70°60' E 024°52'3 6.9
2017-Oct-16 07:00N 70°60' E 024°41'1 2.1
2017-Oct-16 06:30N 71°01' E 024°43'612.4
2017-Oct-16 06:00N 70°59' E 024°25'714.9
2017-Oct-16 05:30N 70°54' E 024°08'714.8
2017-Oct-16 05:00N 70°49' E 023°51'714.8
2017-Oct-16 04:30N 70°43' E 023°37'4 7.8
2017-Oct-16 04:00N 70°40' E 023°41'0 0.0
2017-Oct-16 03:30N 70°40' E 023°41'1 1.3
2017-Oct-16 03:00N 70°40' E 023°39'714.6
2017-Oct-16 02:30N 70°37' E 023°18'815.5
2017-Oct-16 02:00N 70°32' E 023°01'714.9
2017-Oct-16 01:30N 70°27' E 022°43'815.1
2017-Oct-16 01:00N 70°23' E 022°24'713.5
2017-Oct-16 00:30N 70°17' E 022°19'3 5.1
2017-Oct-16 00:00N 70°14' E 022°21'510.7
2017-Oct-15 23:30N 70°19' E 022°12'714.4
2017-Oct-15 23:00N 70°22' E 021°54'612.1
2017-Oct-15 22:30N 70°22' E 021°36'815.0
2017-Oct-15 22:00N 70°17' E 021°20'714.2
2017-Oct-15 21:31N 70°11' E 021°07'815.0
2017-Oct-15 21:00N 70°04' E 021°03'2 4.3
2017-Oct-15 20:30N 70°02' E 020°59'2 3.8
2017-Oct-15 20:00N 70°04' E 020°59'815.5
2017-Oct-15 19:30N 70°01' E 020°37'815.3
2017-Oct-15 19:00N 69°59' E 020°16'714.7
2017-Oct-15 18:30N 69°55' E 019°59'714.9
2017-Oct-15 18:00N 69°50' E 019°41'815.1
2017-Oct-15 17:30N 69°48' E 019°21'714.2
2017-Oct-15 17:00N 69°44' E 019°03'510.4
2017-Oct-15 16:30N 69°39' E 018°58'0 0.0
2017-Oct-15 16:00N 69°39' E 018°58'0 0.0
2017-Oct-15 15:30N 69°39' E 018°58'0 0.0
2017-Oct-15 15:00N 69°39' E 018°58'0 0.0
2017-Oct-15 14:00N 69°39' E 018°58'0 0.0
2017-Oct-15 13:30N 69°39' E 018°58'0 0.0
2017-Oct-15 13:00N 69°39' E 018°58'0 0.0
2017-Oct-15 12:30N 69°39' E 018°58'2 4.9
2017-Oct-15 12:00N 69°37' E 018°55'713.0
2017-Oct-15 11:30N 69°33' E 018°40'714.4
2017-Oct-15 11:00N 69°30' E 018°20'612.7
2017-Oct-15 10:30N 69°26' E 018°08'713.5
2017-Oct-15 10:00N 69°19' E 018°00'611.5
2017-Oct-15 09:30N 69°14' E 017°58'0 0.0
2017-Oct-15 08:59N 69°14' E 017°58'3 6.3
2017-Oct-15 08:29N 69°11' E 017°60'714.4
2017-Oct-15 08:00N 69°08' E 017°42'714.4
2017-Oct-15 07:30N 69°05' E 017°23'714.2
2017-Oct-15 07:00N 68°59' E 017°12'714.7
2017-Oct-15 06:30N 68°54' E 016°56'714.5
2017-Oct-15 06:00N 68°50' E 016°40'3 6.0
2017-Oct-15 05:29N 68°48' E 016°33'0 0.0
2017-Oct-15 04:59N 68°48' E 016°33'0 0.5
2017-Oct-15 04:30N 68°48' E 016°34'510.8
2017-Oct-15 04:00N 68°53' E 016°27'714.8
2017-Oct-15 03:30N 68°57' E 016°10'714.3
2017-Oct-15 03:00N 68°59' E 015°51'5 8.9
2017-Oct-15 02:30N 68°58' E 015°39'3 6.9
2017-Oct-15 02:00N 68°55' E 015°35'814.8
2017-Oct-15 01:29N 68°48' E 015°26'612.3
2017-Oct-15 00:59N 68°42' E 015°25'0 0.0
2017-Oct-15 00:30N 68°42' E 015°25'5 9.4
2017-Oct-15 00:00N 68°38' E 015°20'714.7
2017-Oct-14 23:30N 68°34' E 015°02'3 5.3
2017-Oct-14 23:00N 68°34' E 014°55'4 7.0
2017-Oct-14 22:30N 68°33' E 015°04'612.6
2017-Oct-14 22:00N 68°28' E 015°12'815.1
2017-Oct-14 21:30N 68°21' E 015°03'714.5
2017-Oct-14 21:00N 68°14' E 014°55'612.2
2017-Oct-14 20:30N 68°13' E 014°39'2 3.9
2017-Oct-14 19:58N 68°14' E 014°34'0 0.0
2017-Oct-14 19:28N 68°14' E 014°34'1 1.2
2017-Oct-14 19:00N 68°13' E 014°34'612.3
2017-Oct-14 18:30N 68°10' E 014°20'713.8
2017-Oct-14 18:00N 68°07' E 014°03'5 9.6
2017-Oct-14 17:30N 68°07' E 013°50'0 0.1
2017-Oct-14 17:00N 68°07' E 013°50'4 8.3
2017-Oct-14 16:30N 68°03' E 013°53'714.7
2017-Oct-14 16:00N 67°56' E 013°59'714.5
2017-Oct-14 15:30N 67°50' E 014°06'714.3
2017-Oct-14 15:00N 67°43' E 014°12'714.4
2017-Oct-14 14:30N 67°36' E 014°18'714.5
2017-Oct-14 14:00N 67°29' E 014°23'713.9
2017-Oct-14 13:31N 67°22' E 014°24'5 9.5
2017-Oct-14 13:00N 67°17' E 014°23'0 0.0
2017-Oct-14 12:28N 67°17' E 014°23'0 0.0
2017-Oct-14 11:58N 67°17' E 014°23'0 0.0
2017-Oct-14 11:28N 67°17' E 014°23'0 0.0
2017-Oct-14 10:58N 67°17' E 014°23'0 0.0
2017-Oct-14 10:28N 67°17' E 014°23'2 3.6
2017-Oct-14 10:01N 67°16' E 014°20'815.0
2017-Oct-14 09:31N 67°11' E 014°06'715.0
2017-Oct-14 09:01N 67°05' E 013°55'815.0
2017-Oct-14 08:30N 66°59' E 013°42'612.3
2017-Oct-14 08:00N 66°55' E 013°29'612.0
2017-Oct-14 07:30N 66°52' E 013°42'2 4.8
2017-Oct-14 07:00N 66°50' E 013°39'715.0
2017-Oct-14 06:30N 66°48' E 013°21'714.5
2017-Oct-14 06:00N 66°42' E 013°10'814.7
2017-Oct-14 05:30N 66°35' E 013°05'612.9
2017-Oct-14 05:00N 66°29' E 012°60'815.3
2017-Oct-14 04:30N 66°21' E 012°58'815.3
2017-Oct-14 04:00N 66°14' E 012°54'3 6.3
2017-Oct-14 03:30N 66°12' E 013°00'611.6
2017-Oct-14 03:00N 66°08' E 012°50'714.6
2017-Oct-14 02:30N 66°03' E 012°38'1 2.2
2017-Oct-14 02:00N 66°01' E 012°38'1 1.1
2017-Oct-14 01:30N 66°02' E 012°37'815.0
2017-Oct-14 01:00N 65°56' E 012°24'715.1
2017-Oct-14 00:30N 65°49' E 012°21'815.4
2017-Oct-14 00:00N 65°41' E 012°16'815.6
2017-Oct-13 23:30N 65°34' E 012°13'510.1
2017-Oct-13 22:59N 65°29' E 012°13'1 1.9
2017-Oct-13 22:30N 65°28' E 012°11'714.8
2017-Oct-13 22:00N 65°21' E 012°03'816.0
2017-Oct-13 21:30N 65°14' E 011°55'815.4
2017-Oct-13 21:00N 65°07' E 011°49'815.1
2017-Oct-13 20:31N 65°01' E 011°39'714.7
2017-Oct-13 20:00N 64°56' E 011°26'612.8
2017-Oct-13 19:30N 64°52' E 011°14'0 0.0
2017-Oct-13 19:00N 64°52' E 011°14'2 4.3
2017-Oct-13 18:31N 64°50' E 011°11'714.5
2017-Oct-13 18:00N 64°45' E 010°59'714.6
2017-Oct-13 17:30N 64°40' E 010°46'714.7
2017-Oct-13 17:00N 64°35' E 010°35'714.1
2017-Oct-13 16:30N 64°28' E 010°27'714.0
2017-Oct-13 16:00N 64°21' E 010°27'713.3
2017-Oct-13 15:30N 64°15' E 010°20'714.4
2017-Oct-13 15:00N 64°10' E 010°08'713.5
2017-Oct-13 14:30N 64°04' E 010°02'611.5
2017-Oct-13 14:00N 63°59' E 009°55'714.3
2017-Oct-13 13:30N 63°53' E 009°45'714.7
2017-Oct-13 13:00N 63°48' E 009°34'714.1
2017-Oct-13 12:31N 63°41' E 009°30'4 8.2
2017-Oct-13 12:00N 63°39' E 009°37'611.2
2017-Oct-13 11:30N 63°36' E 009°49'714.9
2017-Oct-13 11:01N 63°30' E 009°56'714.8
2017-Oct-13 10:31N 63°28' E 010°12'611.5
2017-Oct-13 10:01N 63°27' E 010°24'0 0.0
2017-Oct-13 09:29N 63°27' E 010°24'0 0.0
2017-Oct-13 08:59N 63°27' E 010°24'0 0.0
2017-Oct-13 08:29N 63°27' E 010°24'0 0.0
2017-Oct-13 07:59N 63°27' E 010°24'0 0.0
2017-Oct-13 07:23N 63°27' E 010°24'0 0.0
2017-Oct-13 06:59N 63°27' E 010°24'0 0.0
2017-Oct-13 06:29N 63°27' E 010°24'2 4.0
2017-Oct-13 06:01N 63°27' E 010°20'714.9
2017-Oct-13 05:31N 63°28' E 010°04'713.1
2017-Oct-13 05:00N 63°32' E 009°52'714.2
2017-Oct-13 04:30N 63°39' E 009°46'714.4
2017-Oct-13 04:00N 63°36' E 009°31'815.8
2017-Oct-13 03:30N 63°32' E 009°16'2115.6
2017-Oct-13 02:09N 63°24' E 008°32'615.2
2017-Oct-13 01:45N 63°21' E 008°21'415.9
2017-Oct-13 01:30N 63°18' E 008°14'815.7
2017-Oct-13 01:01N 63°14' E 007°60'815.2
2017-Oct-13 00:30N 63°10' E 007°46'3 5.7
2017-Oct-13 00:00N 63°07' E 007°44'2 3.3
2017-Oct-12 23:31N 63°07' E 007°41'613.0
2017-Oct-12 23:01N 63°05' E 007°27'714.1
2017-Oct-12 22:31N 63°02' E 007°13'814.5
2017-Oct-12 21:58N 62°59' E 006°56'511.8
2017-Oct-12 21:31N 62°54' E 006°51'713.5
2017-Oct-12 21:00N 62°48' E 006°58'611.0
2017-Oct-12 20:30N 62°44' E 007°04'2 4.6
2017-Oct-12 19:58N 62°44' E 007°10'0 0.4
2017-Oct-12 19:30N 62°44' E 007°09'712.7
2017-Oct-12 18:59N 62°42' E 006°56'714.1
2017-Oct-12 18:30N 62°39' E 006°42'713.9
2017-Oct-12 18:00N 62°38' E 006°27'713.5
2017-Oct-12 17:30N 62°35' E 006°14'713.2
2017-Oct-12 17:00N 62°29' E 006°09'0 0.3
2017-Oct-12 16:29N 62°29' E 006°09'0 0.0
2017-Oct-12 15:59N 62°29' E 006°09'0 0.0
2017-Oct-12 15:29N 62°29' E 006°09'0 0.0
2017-Oct-12 15:00N 62°29' E 006°09'5 8.8
2017-Oct-12 14:30N 62°25' E 006°04'714.3
2017-Oct-12 14:00N 62°23' E 006°19'713.9
2017-Oct-12 13:30N 62°17' E 006°27'4 0.9
2017-Oct-12 09:10N 62°13' E 006°30'315.0
2017-Oct-12 09:00N 62°16' E 006°28'815.1
2017-Oct-12 08:30N 62°23' E 006°21'714.7
2017-Oct-12 08:00N 62°24' E 006°06'  

Dump ship's entire track history